Gaz Venture — 3FLQ4 — position and weather

sailwx.info

Track history (hours):
 
Tides and Currents Weather Stations Pressure Air Temp Water Temp Dewpoint Dewpoint Depression Visibility Wind Speed Wind Dir Waves Ship Positions

Gaz Venture

Last reported at 2017-Feb-18 01:33 UTC. Time now 2017-Feb-27 04:46 UTC.
Position N 35°41' E 015°01'.
Warning: this ship's position is 9 days out of date.

Length 120 m; draft 7.8 m.

Type: Tanker. MMSI: 356141000.

Date/timePositionNaut miles runAvg speedWind from/ knotsBaromVisibWave heightAir tempDewpointWater temp
2017-Feb-18 01:33N 35°41' E 015°01'1 0.5
2017-Feb-18 00:33N 35°41' E 015°01'1 0.5
2017-Feb-17 23:32N 35°40' E 015°01'1 0.5
2017-Feb-17 22:21N 35°40' E 015°01'0 0.3
2017-Feb-17 21:33N 35°39' E 015°01'0 0.4
2017-Feb-17 20:24N 35°39' E 015°01'0 0.2
2017-Feb-17 18:29N 35°39' E 015°01'0 0.2
2017-Feb-17 15:16N 35°39' E 015°01'0 0.3
2017-Feb-17 13:29N 35°39' E 015°01'4 4.5
2017-Feb-17 12:33N 35°40' E 014°56'3 0.4
2017-Feb-17 05:23N 35°38' E 014°55'0 0.2
2017-Feb-17 04:17N 35°38' E 014°55'0 0.3
2017-Feb-17 03:17N 35°38' E 014°55'0 0.2
2017-Feb-17 01:32N 35°38' E 014°56'1 0.3
2017-Feb-16 23:32N 35°37' E 014°56'10 0.2
2017-Feb-15 03:18N 35°45' E 014°49'1211.6
2017-Feb-15 02:16N 35°45' E 014°34'912.7
2017-Feb-15 01:33N 35°46' E 014°23'1110.5
2017-Feb-15 00:33N 35°56' E 014°18'1 1.3
2017-Feb-14 23:33N 35°57' E 014°19'0 0.0
2017-Feb-14 22:33N 35°57' E 014°19'2 1.9
2017-Feb-14 21:33N 35°57' E 014°17'4 4.2
2017-Feb-14 20:33N 35°55' E 014°12'1 0.9
2017-Feb-14 19:33N 35°55' E 014°13'1 0.9
2017-Feb-14 18:33N 35°54' E 014°13'1 0.7
2017-Feb-14 17:33N 35°53' E 014°14'1 0.7
2017-Feb-14 16:33N 35°53' E 014°15'1 1.0
2017-Feb-14 15:33N 35°53' E 014°16'7 6.8
2017-Feb-14 14:33N 35°48' E 014°21'1312.6
2017-Feb-14 13:33N 35°46' E 014°37'10 0.6
2017-Feb-13 20:16N 35°52' E 014°47'5 7.1
2017-Feb-13 19:33N 35°47' E 014°47'2913.7
2017-Feb-13 17:27N 35°21' E 014°31'  
2017-Feb-09 08:13N 34°21' E 033°02'1015.2
2017-Feb-09 07:34N 34°30' E 033°05'10 9.6
2017-Feb-09 06:34N 34°40' E 033°05'0 0.0
2017-Feb-09 05:31N 34°40' E 033°05'0 0.0
2017-Feb-09 04:31N 34°40' E 033°05'0 0.1
2017-Feb-09 03:31N 34°40' E 033°05'0 0.0
2017-Feb-09 02:31N 34°40' E 033°05'0 0.0
2017-Feb-09 01:31N 34°40' E 033°05'0 0.0
2017-Feb-09 00:31N 34°40' E 033°05'0 0.0
2017-Feb-08 23:31N 34°40' E 033°05'0 0.0
2017-Feb-08 22:31N 34°40' E 033°05'0 0.0
2017-Feb-08 21:31N 34°40' E 033°05'1 1.5
2017-Feb-08 20:33N 34°39' E 033°06'1413.7
2017-Feb-08 19:33N 34°31' E 033°20'  
Track history (hours):
 
Tides and Currents Weather Stations Pressure Air Temp Water Temp Dewpoint Dewpoint Depression Visibility Wind Speed Wind Dir Waves Ship Positions

Gaz Venture

Last reported at 2017-Feb-18 01:33 UTC. Time now 2017-Feb-27 04:46 UTC.
Position N 35°41' E 015°01'.
Warning: this ship's position is 9 days out of date.

Length 120 m; draft 7.8 m.

Type: Tanker. MMSI: 356141000.

Date/timePositionNaut miles runAvg speedWind from/ knotsBaromVisibWave heightAir tempDewpointWater temp
2017-Feb-18 01:33N 35°41' E 015°01'1 0.5
2017-Feb-18 00:33N 35°41' E 015°01'1 0.5
2017-Feb-17 23:32N 35°40' E 015°01'1 0.5
2017-Feb-17 22:21N 35°40' E 015°01'0 0.3
2017-Feb-17 21:33N 35°39' E 015°01'0 0.4
2017-Feb-17 20:24N 35°39' E 015°01'0 0.2
2017-Feb-17 18:29N 35°39' E 015°01'0 0.2
2017-Feb-17 15:16N 35°39' E 015°01'0 0.3
2017-Feb-17 13:29N 35°39' E 015°01'4 4.5
2017-Feb-17 12:33N 35°40' E 014°56'3 0.4
2017-Feb-17 05:23N 35°38' E 014°55'0 0.2
2017-Feb-17 04:17N 35°38' E 014°55'0 0.3
2017-Feb-17 03:17N 35°38' E 014°55'0 0.2
2017-Feb-17 01:32N 35°38' E 014°56'1 0.3
2017-Feb-16 23:32N 35°37' E 014°56'10 0.2
2017-Feb-15 03:18N 35°45' E 014°49'1211.6
2017-Feb-15 02:16N 35°45' E 014°34'912.7
2017-Feb-15 01:33N 35°46' E 014°23'1110.5
2017-Feb-15 00:33N 35°56' E 014°18'1 1.3
2017-Feb-14 23:33N 35°57' E 014°19'0 0.0
2017-Feb-14 22:33N 35°57' E 014°19'2 1.9
2017-Feb-14 21:33N 35°57' E 014°17'4 4.2
2017-Feb-14 20:33N 35°55' E 014°12'1 0.9
2017-Feb-14 19:33N 35°55' E 014°13'1 0.9
2017-Feb-14 18:33N 35°54' E 014°13'1 0.7
2017-Feb-14 17:33N 35°53' E 014°14'1 0.7
2017-Feb-14 16:33N 35°53' E 014°15'1 1.0
2017-Feb-14 15:33N 35°53' E 014°16'7 6.8
2017-Feb-14 14:33N 35°48' E 014°21'1312.6
2017-Feb-14 13:33N 35°46' E 014°37'10 0.6
2017-Feb-13 20:16N 35°52' E 014°47'5 7.1
2017-Feb-13 19:33N 35°47' E 014°47'2913.7
2017-Feb-13 17:27N 35°21' E 014°31'  
2017-Feb-09 08:13N 34°21' E 033°02'1015.2
2017-Feb-09 07:34N 34°30' E 033°05'10 9.6
2017-Feb-09 06:34N 34°40' E 033°05'0 0.0
2017-Feb-09 05:31N 34°40' E 033°05'0 0.0
2017-Feb-09 04:31N 34°40' E 033°05'0 0.1
2017-Feb-09 03:31N 34°40' E 033°05'0 0.0
2017-Feb-09 02:31N 34°40' E 033°05'0 0.0
2017-Feb-09 01:31N 34°40' E 033°05'0 0.0
2017-Feb-09 00:31N 34°40' E 033°05'0 0.0
2017-Feb-08 23:31N 34°40' E 033°05'0 0.0
2017-Feb-08 22:31N 34°40' E 033°05'0 0.0
2017-Feb-08 21:31N 34°40' E 033°05'1 1.5
2017-Feb-08 20:33N 34°39' E 033°06'1413.7
2017-Feb-08 19:33N 34°31' E 033°20'  

Dump ship's entire track history